createdAt,value
2022-09-05T00:02:34.932Z,96486.72
2022-09-05T00:07:58.897Z,96489.66
2022-09-05T00:13:07.165Z,96484.66
2022-09-05T00:23:17.593Z,96485.69
2022-09-05T00:24:37.159Z,96478.53
2022-09-05T00:31:07.719Z,96477.31
2022-09-05T00:35:30.761Z,96482.81
2022-09-05T00:40:38.604Z,96489.34
2022-09-05T00:45:49.000Z,96488.19
2022-09-05T00:51:01.857Z,96487.75
2022-09-05T00:56:19.740Z,96493.41
2022-09-05T01:01:43.039Z,96497.88
2022-09-05T01:07:02.785Z,96496.97
2022-09-05T01:12:22.609Z,96488.09
2022-09-05T01:17:38.385Z,96479.19
2022-09-05T01:23:00.652Z,96469.13
2022-09-05T01:29:15.698Z,96473.47
2022-09-05T01:33:53.987Z,96466.59
2022-09-05T01:40:10.526Z,96466.38
2022-09-05T01:44:42.454Z,96469.63
2022-09-05T01:50:00.729Z,96474.91
2022-09-05T01:55:23.435Z,96464.72
2022-09-05T02:00:36.444Z,96480.38
2022-09-05T02:06:14.309Z,96477.28
2022-09-05T02:11:36.060Z,96484.16
2022-09-05T02:16:45.719Z,96478.13
2022-09-05T02:21:58.713Z,96470.38
2022-09-05T02:27:35.857Z,96473.66
2022-09-05T02:33:06.378Z,96479.38
2022-09-05T02:44:18.281Z,96471.06
2022-09-05T02:45:24.502Z,96474.53
2022-09-05T02:50:07.033Z,96476.72
2022-09-05T02:57:36.694Z,96476.53
2022-09-05T03:00:11.537Z,96473.91
2022-09-05T03:05:23.657Z,96483.28
2022-09-05T03:10:54.128Z,96475.38
2022-09-05T03:16:18.315Z,96475.13
2022-09-05T03:21:52.012Z,96481.28
2022-09-05T03:27:23.693Z,96459.16
2022-09-05T03:33:17.782Z,96473.78
2022-09-05T03:38:58.901Z,96475.50
2022-09-05T03:44:15.904Z,96482.81
2022-09-05T03:53:31.033Z,96480.53
2022-09-05T03:57:11.961Z,96475.41
2022-09-05T04:01:10.777Z,96484.53
2022-09-05T04:08:24.160Z,96474.19
2022-09-05T04:12:03.455Z,96480.41
2022-09-05T04:17:12.070Z,96487.50
2022-09-05T04:22:23.786Z,96497.38
2022-09-05T04:27:36.252Z,96498.03
2022-09-05T04:32:54.654Z,96498.41
2022-09-05T04:37:59.501Z,96497.59
2022-09-05T04:43:07.522Z,96507.16
2022-09-05T04:48:14.965Z,96510.75
2022-09-05T04:53:36.635Z,96517.69
2022-09-05T05:00:33.801Z,96526.88
2022-09-05T05:06:11.395Z,96537.38
2022-09-05T05:09:43.222Z,96533.13
2022-09-05T05:17:59.918Z,96541.00
2022-09-05T05:20:40.497Z,96543.00
2022-09-05T05:25:51.562Z,96543.66
2022-09-05T05:31:01.569Z,96563.34
2022-09-05T05:36:10.105Z,96565.16
2022-09-05T05:41:21.053Z,96566.00
2022-09-05T05:46:36.364Z,96568.09
2022-09-05T05:52:02.103Z,96574.84
2022-09-05T05:57:37.109Z,96579.41
2022-09-05T06:03:27.027Z,96582.47
2022-09-05T06:11:02.335Z,96592.78
2022-09-05T06:14:56.050Z,96588.75
2022-09-05T06:22:05.781Z,96588.34
2022-09-05T06:26:50.099Z,96584.66
2022-09-05T06:32:05.237Z,96593.97
2022-09-05T06:37:17.299Z,96593.75
2022-09-05T06:42:30.636Z,96594.41
2022-09-05T06:47:48.055Z,96593.34
2022-09-05T06:53:39.319Z,96592.94
2022-09-05T06:59:12.040Z,96598.25
2022-09-05T07:05:14.600Z,96599.78
2022-09-05T07:10:00.377Z,96594.91
2022-09-05T07:15:14.345Z,96598.41
2022-09-05T07:20:22.698Z,96599.13
2022-09-05T07:25:33.144Z,96602.25
2022-09-05T07:30:47.496Z,96601.53
2022-09-05T07:35:52.589Z,96599.16
2022-09-05T07:41:00.632Z,96602.63
2022-09-05T07:46:11.775Z,96599.16
2022-09-05T07:56:49.196Z,96603.97
2022-09-05T07:57:22.310Z,96610.84
2022-09-05T08:02:14.596Z,96600.41
2022-09-05T08:07:48.121Z,96598.28
2022-09-05T08:13:23.044Z,96596.78
2022-09-05T08:18:17.938Z,96591.66
2022-09-05T08:23:42.521Z,96577.47
2022-09-05T08:28:56.454Z,96581.53
2022-09-05T08:34:03.777Z,96583.34
2022-09-05T08:39:10.338Z,96586.09
2022-09-05T08:46:40.509Z,96588.44
2022-09-05T08:49:58.837Z,96584.28
2022-09-05T08:55:14.492Z,96588.25
2022-09-05T09:00:24.161Z,96579.56
2022-09-05T09:06:12.003Z,96575.56
2022-09-05T09:11:16.950Z,96570.59
2022-09-05T09:16:30.881Z,96570.22
2022-09-05T09:21:42.113Z,96569.44
2022-09-05T09:26:56.687Z,96565.38
2022-09-05T09:32:07.685Z,96557.03
2022-09-05T09:37:49.970Z,96552.56
2022-09-05T09:43:06.368Z,96551.56
2022-09-05T09:48:44.227Z,96551.59
2022-09-05T09:54:03.870Z,96543.59
2022-09-05T09:59:29.344Z,96536.44
2022-09-05T10:10:33.220Z,96529.06
2022-09-05T10:11:22.496Z,96521.66
2022-09-05T10:16:39.778Z,96516.72
2022-09-05T10:28:02.199Z,96503.94
2022-09-05T10:35:15.177Z,96502.84
2022-09-05T10:39:00.918Z,96490.09
2022-09-05T10:44:07.340Z,96481.63
2022-09-05T10:49:14.468Z,96477.34
2022-09-05T10:54:35.609Z,96475.66
2022-09-05T11:02:15.833Z,96472.44
2022-09-05T11:05:24.615Z,96468.94
2022-09-05T11:10:35.069Z,96467.22
2022-09-05T11:16:05.037Z,96452.72
2022-09-05T11:21:14.545Z,96445.84
2022-09-05T11:26:30.659Z,96442.31
2022-09-05T11:32:37.078Z,96442.22
2022-09-05T11:40:06.814Z,96432.19
2022-09-05T11:42:57.749Z,96430.28
2022-09-05T11:48:25.056Z,96434.34
2022-09-05T11:53:57.342Z,96421.50
2022-09-05T11:59:33.445Z,96411.03
2022-09-05T12:05:48.494Z,96407.53
2022-09-05T12:10:47.116Z,96401.16
2022-09-05T12:21:27.141Z,96393.34
2022-09-05T12:27:42.468Z,96387.41
2022-09-05T12:34:02.726Z,96379.63
2022-09-05T12:41:42.381Z,96381.41
2022-09-05T12:44:38.392Z,96380.69
2022-09-05T12:48:26.449Z,96370.84
2022-09-05T12:53:48.825Z,96364.72
2022-09-05T13:03:05.296Z,96355.34
2022-09-05T13:04:25.328Z,96356.38
2022-09-05T13:12:16.326Z,96352.41
2022-09-05T13:15:20.049Z,96341.53
2022-09-05T13:20:32.490Z,96340.22
2022-09-05T13:25:37.268Z,96328.50
2022-09-05T13:34:16.188Z,96323.28
2022-09-05T13:38:20.158Z,96311.06
2022-09-05T13:41:59.394Z,96300.06
2022-09-05T13:47:14.758Z,96300.44
2022-09-05T13:52:35.602Z,96288.97
2022-09-05T13:57:44.329Z,96286.06
2022-09-05T14:09:35.268Z,96275.25
2022-09-05T14:15:08.175Z,96272.75
2022-09-05T14:20:00.047Z,96260.81
2022-09-05T14:25:05.367Z,96251.78
2022-09-05T14:31:06.045Z,96255.91
2022-09-05T14:37:44.167Z,96242.50
2022-09-05T14:41:45.742Z,96251.16
2022-09-05T14:47:38.689Z,96241.44
2022-09-05T15:02:47.706Z,96247.88
2022-09-05T15:12:16.059Z,96228.22
2022-09-05T15:14:45.972Z,96227.84
2022-09-05T15:20:06.609Z,96230.09
2022-09-05T15:25:19.221Z,96221.41
2022-09-05T15:30:35.158Z,96217.00
2022-09-05T15:35:43.380Z,96213.44
2022-09-05T15:40:46.208Z,96228.19
2022-09-05T15:45:49.873Z,96221.72
2022-09-05T15:50:59.020Z,96212.31
2022-09-05T15:56:18.725Z,96213.06
2022-09-05T16:01:48.592Z,96214.25
2022-09-05T16:10:35.221Z,96212.94
2022-09-05T16:12:32.077Z,96214.41
2022-09-05T16:23:19.108Z,96206.47
2022-09-05T16:23:39.346Z,96201.88
2022-09-05T16:28:39.413Z,96216.59
2022-09-05T16:33:44.378Z,96199.78
2022-09-05T16:38:52.589Z,96208.38
2022-09-05T16:44:00.273Z,96205.66
2022-09-05T16:49:11.676Z,96206.00
2022-09-05T16:54:25.434Z,96212.38
2022-09-05T16:59:30.933Z,96201.53
2022-09-05T17:05:03.649Z,96206.69
2022-09-05T17:10:11.743Z,96209.66
2022-09-05T17:15:17.985Z,96206.81
2022-09-05T17:20:23.202Z,96216.03
2022-09-05T17:29:20.505Z,96208.63
2022-09-05T17:36:41.361Z,96202.19
2022-09-05T17:42:03.476Z,96200.34
2022-09-05T17:47:15.190Z,96203.03
2022-09-05T17:52:23.339Z,96196.84
2022-09-05T17:57:42.054Z,96191.25
2022-09-05T18:02:56.115Z,96180.97
2022-09-05T18:08:00.211Z,96192.44
2022-09-05T18:13:31.813Z,96191.13
2022-09-05T18:19:28.101Z,96199.72
2022-09-05T18:24:03.264Z,96201.75
2022-09-05T18:29:16.997Z,96202.00
2022-09-05T18:35:13.223Z,96207.97
2022-09-05T18:40:37.084Z,96213.69
2022-09-05T18:45:52.674Z,96219.72
2022-09-05T18:51:13.822Z,96228.91
2022-09-05T18:56:27.849Z,96228.22
2022-09-05T19:01:38.042Z,96235.31
2022-09-05T19:06:46.560Z,96244.34
2022-09-05T19:11:53.916Z,96260.22
2022-09-05T19:17:04.194Z,96265.91
2022-09-05T19:23:08.294Z,96259.38
2022-09-05T19:30:25.031Z,96268.88
2022-09-05T19:36:54.504Z,96255.41
2022-09-05T19:38:31.147Z,96274.19
2022-09-05T19:47:40.240Z,96281.63
2022-09-05T19:49:25.825Z,96279.28
2022-09-05T19:54:30.627Z,96273.22
2022-09-05T19:59:35.178Z,96279.44
2022-09-05T20:04:48.289Z,96275.59
2022-09-05T20:09:57.821Z,96263.94
2022-09-05T20:15:19.999Z,96261.44
2022-09-05T20:20:26.308Z,96260.81
2022-09-05T20:25:36.544Z,96256.03
2022-09-05T20:30:44.016Z,96269.72
2022-09-05T20:40:05.488Z,96269.38
2022-09-05T20:43:27.335Z,96271.50
2022-09-05T20:49:00.843Z,96270.03
2022-09-05T20:54:20.152Z,96292.06
2022-09-05T20:57:45.006Z,96290.50
2022-09-05T21:02:54.622Z,96284.50
2022-09-05T21:08:32.082Z,96285.88
2022-09-05T21:13:37.669Z,96288.81
2022-09-05T21:18:55.102Z,96292.09
2022-09-05T21:24:15.810Z,96295.34
2022-09-05T21:29:32.542Z,96279.84
2022-09-05T21:34:45.172Z,96272.03
2022-09-05T21:39:59.436Z,96300.38
2022-09-05T21:47:49.493Z,96293.88
2022-09-05T21:50:31.481Z,96287.59
2022-09-05T21:59:17.168Z,96293.28
2022-09-05T22:00:59.276Z,96291.25
2022-09-05T22:06:07.148Z,96290.06
2022-09-05T22:11:13.912Z,96282.72
2022-09-05T22:16:17.062Z,96286.84
2022-09-05T22:21:32.938Z,96285.81
2022-09-05T22:27:10.765Z,96279.94
2022-09-05T22:32:08.710Z,96280.00
2022-09-05T22:37:11.687Z,96286.53
2022-09-05T22:42:15.924Z,96287.41
2022-09-05T22:47:19.909Z,96293.13
2022-09-05T22:52:22.721Z,96286.81
2022-09-05T22:57:26.905Z,96281.50
2022-09-05T23:02:29.648Z,96272.94
2022-09-05T23:07:32.896Z,96273.75
2022-09-05T23:12:40.020Z,96275.19
2022-09-05T23:17:42.913Z,96287.69
2022-09-05T23:22:45.684Z,96295.47
2022-09-05T23:27:50.528Z,96308.72
2022-09-05T23:32:53.846Z,96305.41
2022-09-05T23:37:56.604Z,96306.25
2022-09-05T23:43:01.266Z,96308.66
2022-09-05T23:48:04.359Z,96305.59
2022-09-05T23:53:07.113Z,96299.28
2022-09-05T23:58:11.893Z,96291.72
